Time;durP1;ratioP1;P1;durP2;ratioP2;P2;SDS_P1;SDS_P2;PMS_P1;PMS_P2;Temp;Humidity;BMP_temperature;BMP_pressure;BME280_temperature;BME280_humidity;BME280_pressure;Samples;Min_cycle;Max_cycle;Signal;HPM_P1;HPM_P2
2022/04/22 00:01:23;;;;;;;1.60;1.40;;;18.40;64.30;;;;;;5034975;28;20403;-63
2022/04/22 00:03:50;;;;;;;2.42;1.48;;;18.40;64.40;;;;;;5034837;28;20034;-63
2022/04/22 00:06:15;;;;;;;2.75;1.15;;;18.30;64.30;;;;;;5035064;28;20013;-63
2022/04/22 00:08:41;;;;;;;1.35;1.25;;;18.30;64.30;;;;;;5034895;28;20083;-63
2022/04/22 00:13:51;;;;;;;1.35;1.25;;;18.30;64.40;;;;;;5034895;28;20395;-63
2022/04/22 00:16:21;;;;;;;2.35;1.45;;;18.30;64.40;;;;;;5034746;28;20504;-63
2022/04/22 00:18:46;;;;;;;1.30;1.20;;;18.30;64.50;;;;;;5034598;28;20025;-63
2022/04/22 00:21:12;;;;;;;3.55;1.30;;;18.30;64.50;;;;;;5034767;28;20096;-63
2022/04/22 00:23:38;;;;;;;1.90;1.45;;;18.30;64.50;;;;;;5031462;28;20469;-63
2022/04/22 00:26:04;;;;;;;2.63;1.60;;;18.30;64.50;;;;;;5034687;28;20026;-63
2022/04/22 00:28:29;;;;;;;2.70;1.27;;;18.30;64.60;;;;;;5034642;28;20021;-63
2022/04/22 00:30:55;;;;;;;1.77;1.25;;;18.30;64.50;;;;;;5034860;28;20022;-63
2022/04/22 00:33:21;;;;;;;2.28;1.40;;;18.30;64.60;;;;;;5034579;28;20569;-63
2022/04/22 00:35:46;;;;;;;2.45;1.70;;;18.30;64.60;;;;;;5034438;28;20278;-63
2022/04/22 00:38:12;;;;;;;1.27;1.17;;;18.30;65.60;;;;;;5034159;28;20030;-63
2022/04/22 00:40:38;;;;;;;1.58;1.33;;;18.30;64.60;;;;;;5032968;28;20099;-63
2022/04/22 00:43:20;;;;;;;3.63;1.52;;;18.30;64.60;;;;;;5032747;28;20431;-63
2022/04/22 00:45:45;;;;;;;2.20;1.23;;;18.30;64.60;;;;;;5034129;28;20017;-63
2022/04/22 00:48:11;;;;;;;1.25;1.15;;;18.30;64.70;;;;;;5034227;28;20508;-63
2022/04/22 00:50:38;;;;;;;1.95;1.33;;;18.30;64.70;;;;;;5032371;28;20026;-63
2022/04/22 00:53:04;;;;;;;2.85;1.40;;;18.30;64.60;;;;;;5034014;28;20492;-63
2022/04/22 00:55:30;;;;;;;3.25;1.38;;;18.30;64.70;;;;;;5032079;28;20075;-63
2022/04/22 00:57:55;;;;;;;1.90;1.48;;;18.30;64.70;;;;;;5032828;28;20037;-63
2022/04/22 01:00:21;;;;;;;1.33;1.23;;;18.30;64.70;;;;;;5033866;28;20084;-63
2022/04/22 01:02:47;;;;;;;2.20;1.27;;;18.30;64.70;;;;;;5033886;28;20156;-63
2022/04/22 01:10:41;;;;;;;1.63;1.30;;;18.30;64.80;;;;;;5032932;28;20510;-63
2022/04/22 01:13:07;;;;;;;3.22;1.20;;;18.30;64.90;;;;;;5032068;28;20061;-63
2022/04/22 01:15:34;;;;;;;1.40;1.30;;;18.30;65.80;;;;;;5032492;28;20026;-63
2022/04/22 01:18:00;;;;;;;2.60;1.42;;;18.30;64.80;;;;;;5033706;28;20037;-63
2022/04/22 01:20:26;;;;;;;2.25;1.20;;;18.30;64.80;;;;;;5033489;28;20029;-63
2022/04/22 01:22:52;;;;;;;2.78;1.20;;;18.30;64.80;;;;;;5033343;28;20025;-63
2022/04/22 01:25:17;;;;;;;1.98;1.45;;;18.30;64.90;;;;;;5033309;28;20040;-63
2022/04/22 01:27:44;;;;;;;2.00;1.30;;;18.20;64.80;;;;;;5033553;28;20032;-63
2022/04/22 01:30:10;;;;;;;1.45;1.35;;;18.30;64.80;;;;;;5033311;28;20028;-63
2022/04/22 01:32:37;;;;;;;2.88;1.52;;;18.20;64.80;;;;;;5033558;28;20029;-63
2022/04/22 01:35:03;;;;;;;1.20;1.10;;;18.30;64.90;;;;;;5032527;28;20116;-63
2022/04/22 01:37:31;;;;;;;1.60;1.30;;;18.30;64.90;;;;;;5033334;28;20028;-63
2022/04/22 01:39:57;;;;;;;1.50;1.20;;;18.30;65.00;;;;;;5032903;28;20454;-63
2022/04/22 01:42:22;;;;;;;2.72;1.33;;;18.30;64.90;;;;;;5033156;28;20022;-63
2022/04/22 01:44:49;;;;;;;1.52;1.40;;;18.20;64.90;;;;;;5032911;28;20030;-63
2022/04/22 01:47:15;;;;;;;1.90;1.30;;;18.30;65.00;;;;;;5033073;28;20451;-63
2022/04/22 01:49:41;;;;;;;2.38;1.15;;;18.30;65.00;;;;;;5032842;28;20013;-63
2022/04/22 01:52:07;;;;;;;1.40;1.30;;;18.20;64.90;;;;;;5032038;28;20499;-63
2022/04/22 01:54:33;;;;;;;4.22;1.30;;;18.30;65.00;;;;;;5032626;28;20021;-63
2022/04/22 01:56:58;;;;;;;1.27;1.05;;;18.20;65.00;;;;;;5032874;28;20033;-63
2022/04/22 01:59:24;;;;;;;1.55;1.23;;;18.20;65.00;;;;;;5032917;28;20040;-63
2022/04/22 02:01:49;;;;;;;1.58;1.33;;;18.30;65.00;;;;;;5032805;28;20030;-63
2022/04/22 02:04:15;;;;;;;1.23;1.13;;;18.20;65.00;;;;;;5032734;28;20026;-63
2022/04/22 02:06:41;;;;;;;1.25;1.15;;;18.20;65.00;;;;;;5032606;28;20100;-63
2022/04/22 02:09:06;;;;;;;2.00;1.20;;;18.30;65.10;;;;;;5032641;28;20096;-63
2022/04/22 02:11:32;;;;;;;1.20;1.10;;;18.20;65.10;;;;;;5032610;28;20454;-63
2022/04/22 02:13:58;;;;;;;1.48;1.30;;;18.20;65.10;;;;;;5032615;28;20029;-63
2022/04/22 02:16:23;;;;;;;1.92;1.33;;;18.20;65.00;;;;;;5032557;28;20037;-63
2022/04/22 02:18:49;;;;;;;1.20;1.10;;;18.20;65.00;;;;;;5032432;28;20133;-63
2022/04/22 02:21:15;;;;;;;1.85;1.35;;;18.20;65.10;;;;;;5032519;28;20044;-63
2022/04/22 02:23:41;;;;;;;7.03;1.90;;;18.20;65.20;;;;;;5032100;28;20025;-63
2022/04/22 02:26:06;;;;;;;2.20;1.60;;;18.20;65.20;;;;;;5032537;28;20097;-63
2022/04/22 02:28:32;;;;;;;3.47;1.50;;;18.20;65.10;;;;;;5032347;28;20052;-63
2022/04/22 02:31:08;;;;;;;1.88;1.10;;;18.30;65.20;;;;;;5031156;28;20026;-63
2022/04/22 02:33:35;;;;;;;1.30;1.20;;;18.20;65.20;;;;;;5032425;28;20022;-63
2022/04/22 02:36:01;;;;;;;1.90;1.20;;;18.30;65.30;;;;;;5032354;28;20087;-63
2022/04/22 02:38:30;;;;;;;1.67;1.20;;;18.20;65.20;;;;;;5031880;28;20431;-63
2022/04/22 02:46:24;;;;;;;3.67;1.05;;;18.20;65.30;;;;;;5037035;28;20029;-63
2022/04/22 02:48:51;;;;;;;1.83;1.15;;;18.20;65.30;;;;;;5038556;28;20032;-63
2022/04/22 02:51:17;;;;;;;1.95;1.38;;;18.20;65.30;;;;;;5038953;28;20025;-63
2022/04/22 02:53:43;;;;;;;1.95;1.20;;;18.20;65.30;;;;;;5038490;28;20408;-63
2022/04/22 02:56:09;;;;;;;1.00;1.00;;;18.20;65.30;;;;;;5039023;28;20021;-63
2022/04/22 02:58:34;;;;;;;1.17;1.08;;;18.20;65.40;;;;;;5038828;28;20390;-63
2022/04/22 03:01:00;;;;;;;1.92;1.23;;;18.20;65.40;;;;;;5037364;28;20536;-63
2022/04/22 03:03:26;;;;;;;1.20;1.10;;;18.20;65.40;;;;;;5038767;28;20017;-63
2022/04/22 03:05:52;;;;;;;1.40;1.30;;;18.20;65.40;;;;;;5038648;28;20029;-63
2022/04/22 03:08:17;;;;;;;3.33;1.27;;;18.20;65.50;;;;;;5038511;28;20041;-63
2022/04/22 03:10:43;;;;;;;1.92;1.30;;;18.20;65.50;;;;;;5038483;28;20036;-63
2022/04/22 03:13:09;;;;;;;3.25;1.30;;;18.20;65.60;;;;;;5038648;28;20384;-63
2022/04/22 03:15:36;;;;;;;2.75;1.27;;;18.20;65.50;;;;;;5038413;28;20029;-63
2022/04/22 03:18:02;;;;;;;1.52;1.00;;;18.20;65.50;;;;;;5038752;28;20068;-63
2022/04/22 03:20:28;;;;;;;1.83;1.33;;;18.20;65.60;;;;;;5038583;28;20061;-63
2022/04/22 03:22:53;;;;;;;1.30;1.15;;;18.30;65.60;;;;;;5038120;28;20443;-63
2022/04/22 03:25:20;;;;;;;2.05;1.25;;;18.20;65.60;;;;;;5038462;28;20021;-63
2022/04/22 03:27:46;;;;;;;1.45;1.20;;;18.20;65.60;;;;;;5038511;28;20021;-63
2022/04/22 03:30:12;;;;;;;1.60;1.20;;;18.30;65.70;;;;;;5038480;28;20053;-63
2022/04/22 03:32:38;;;;;;;1.30;1.20;;;18.20;65.70;;;;;;5038518;28;20045;-63
2022/04/22 03:35:04;;;;;;;1.70;1.60;;;18.20;65.70;;;;;;5038464;28;20545;-63
2022/04/22 03:37:31;;;;;;;2.15;1.20;;;18.20;65.70;;;;;;5038235;28;20071;-63
2022/04/22 03:39:57;;;;;;;1.70;1.10;;;18.20;65.80;;;;;;5038299;28;20415;-63
2022/04/22 03:42:22;;;;;;;1.30;1.20;;;18.20;65.80;;;;;;5038385;28;20491;-63
2022/04/22 03:44:48;;;;;;;1.00;1.00;;;18.20;65.80;;;;;;5038124;28;20045;-63
2022/04/22 03:47:14;;;;;;;1.50;1.25;;;18.20;65.80;;;;;;5036988;28;20041;-63
2022/04/22 03:49:39;;;;;;;2.30;1.35;;;18.20;65.80;;;;;;5038085;28;20026;-63
2022/04/22 03:52:05;;;;;;;1.55;0.85;;;18.20;65.90;;;;;;5038198;28;20442;-63
2022/04/22 03:54:31;;;;;;;2.97;1.20;;;18.20;65.90;;;;;;5038313;28;20031;-63
2022/04/22 03:59:41;;;;;;;1.20;1.20;;;18.20;66.00;;;;;;5035153;28;20036;-63
2022/04/22 04:02:07;;;;;;;2.28;1.00;;;18.20;66.00;;;;;;5035130;28;20025;-63
2022/04/22 04:04:33;;;;;;;1.25;1.13;;;18.20;66.00;;;;;;5034904;28;20025;-63
2022/04/22 04:06:59;;;;;;;1.20;1.10;;;18.20;66.00;;;;;;5034896;28;20064;-63
2022/04/22 04:17:40;;;;;;;2.72;1.85;;;18.20;66.20;;;;;;5034756;28;20032;-63
2022/04/22 04:25:35;;;;;;;1.15;1.02;;;18.20;66.30;;;;;;5034529;28;20056;-63
2022/04/22 04:28:02;;;;;;;1.52;1.30;;;18.10;66.20;;;;;;5034799;28;20491;-63
2022/04/22 04:30:28;;;;;;;1.30;1.20;;;18.10;66.20;;;;;;5034502;28;20492;-63
2022/04/22 04:32:54;;;;;;;1.67;1.20;;;18.20;66.20;;;;;;5034527;28;20143;-63
2022/04/22 04:35:19;;;;;;;2.03;1.17;;;18.20;66.20;;;;;;5034206;28;20057;-63
2022/04/22 04:37:45;;;;;;;1.98;1.20;;;18.20;66.30;;;;;;5034420;28;20428;-63
2022/04/22 04:40:10;;;;;;;2.08;1.40;;;18.10;66.10;;;;;;5034242;28;20047;-63
2022/04/22 04:42:36;;;;;;;1.20;1.10;;;18.20;66.30;;;;;;5033274;28;20383;-63
2022/04/22 04:45:03;;;;;;;3.45;1.30;;;18.20;66.20;;;;;;5032828;28;20088;-63
2022/04/22 04:47:29;;;;;;;1.73;1.13;;;18.10;66.20;;;;;;5034233;28;20017;-63
2022/04/22 04:49:55;;;;;;;3.80;1.40;;;18.10;66.20;;;;;;5033998;28;20096;-63
2022/04/22 04:52:20;;;;;;;1.48;1.17;;;18.20;66.20;;;;;;5034405;28;20022;-63
2022/04/22 04:54:48;;;;;;;1.63;1.10;;;18.20;66.30;;;;;;5034092;28;20080;-63
2022/04/22 04:57:14;;;;;;;1.67;1.05;;;18.20;66.30;;;;;;5034310;28;20083;-63
2022/04/22 04:59:39;;;;;;;1.52;1.00;;;18.10;66.30;;;;;;5034127;28;20446;-63
2022/04/22 05:02:05;;;;;;;2.15;1.20;;;18.10;66.20;;;;;;5034054;28;20400;-63
2022/04/22 05:04:30;;;;;;;2.15;1.25;;;18.10;66.20;;;;;;5033650;28;20060;-63
2022/04/22 05:06:57;;;;;;;1.83;1.30;;;18.10;66.30;;;;;;5033649;28;20044;-63
2022/04/22 05:09:22;;;;;;;1.60;1.00;;;18.10;66.20;;;;;;5032816;28;20027;-63
2022/04/22 05:11:48;;;;;;;2.67;1.10;;;18.10;66.30;;;;;;5033658;28;20116;-63
2022/04/22 05:14:14;;;;;;;1.55;1.20;;;18.10;66.30;;;;;;5033783;28;20104;-63
2022/04/22 05:16:39;;;;;;;1.10;0.90;;;18.10;66.30;;;;;;5033713;28;20025;-63
2022/04/22 05:19:05;;;;;;;1.33;0.98;;;18.10;66.30;;;;;;5033533;28;20026;-62
2022/04/22 05:21:31;;;;;;;2.10;1.30;;;18.10;66.40;;;;;;5033568;28;20045;-63
2022/04/22 05:23:56;;;;;;;1.30;1.08;;;18.10;66.40;;;;;;5033615;28;20501;-62
2022/04/22 05:26:24;;;;;;;3.90;1.00;;;18.10;66.40;;;;;;5030110;28;20078;-63
2022/04/22 05:28:50;;;;;;;3.10;1.05;;;18.10;66.40;;;;;;5032326;28;20029;-63
2022/04/22 05:34:00;;;;;;;1.67;0.88;;;18.10;66.40;;;;;;5032749;28;20579;-63
2022/04/22 05:36:25;;;;;;;1.33;1.10;;;18.10;66.50;;;;;;5032915;28;20100;-63
2022/04/22 05:38:54;;;;;;;3.13;1.30;;;18.10;66.50;;;;;;5031447;28;20072;-63
2022/04/22 05:41:20;;;;;;;1.95;1.50;;;18.10;66.50;;;;;;5023847;28;20030;-63
2022/04/22 05:43:45;;;;;;;3.05;1.95;;;18.10;66.40;;;;;;5013164;28;20041;-63
2022/04/22 05:46:11;;;;;;;2.63;1.65;;;18.00;66.10;;;;;;5013563;28;20071;-62
2022/04/22 05:48:39;;;;;;;3.83;1.90;;;18.00;65.90;;;;;;5032474;28;20030;-63
2022/04/22 05:51:04;;;;;;;2.22;1.45;;;18.00;65.90;;;;;;5032784;28;20025;-63
2022/04/22 05:53:30;;;;;;;1.70;1.55;;;17.90;65.90;;;;;;5033171;28;20396;-63
2022/04/22 05:55:57;;;;;;;1.80;1.48;;;18.00;65.90;;;;;;5032828;28;20079;-63
2022/04/22 05:58:22;;;;;;;3.78;2.08;;;17.90;65.70;;;;;;5032891;28;20021;-63
2022/04/22 06:00:49;;;;;;;2.25;1.60;;;17.90;65.70;;;;;;5032768;28;20036;-63
2022/04/22 06:03:15;;;;;;;2.70;1.80;;;17.90;65.70;;;;;;5037605;28;20029;-63
2022/04/22 06:05:40;;;;;;;1.70;1.33;;;17.90;65.70;;;;;;5050996;28;20035;-63
2022/04/22 06:10:51;;;;;;;3.72;1.50;;;17.90;65.60;;;;;;5050940;28;20028;-63
2022/04/22 06:13:17;;;;;;;2.55;1.75;;;17.90;65.60;;;;;;5051167;28;20025;-63
2022/04/22 06:15:43;;;;;;;1.80;1.38;;;17.90;65.50;;;;;;5050952;28;20443;-63
2022/04/22 06:18:09;;;;;;;2.05;1.60;;;17.90;65.50;;;;;;5052684;28;20024;-63
2022/04/22 06:20:35;;;;;;;5.43;2.00;;;17.90;65.50;;;;;;5052074;28;20404;-63
2022/04/22 06:23:00;;;;;;;2.95;1.50;;;17.90;65.40;;;;;;5051983;28;20036;-63
2022/04/22 06:25:27;;;;;;;5.72;1.80;;;17.90;65.40;;;;;;5052003;28;20029;-63
2022/04/22 06:27:53;;;;;;;8.52;1.90;;;17.90;65.40;;;;;;5052206;28;20044;-63
2022/04/22 06:30:20;;;;;;;5.97;2.10;;;17.80;65.30;;;;;;5038003;28;20480;-63
2022/04/22 06:32:47;;;;;;;4.57;1.90;;;17.90;65.30;;;;;;5032477;28;20033;-63
2022/04/22 06:35:13;;;;;;;6.07;1.90;;;17.90;66.40;;;;;;5032511;28;20029;-63
2022/04/22 06:37:40;;;;;;;7.13;2.50;;;17.80;65.20;;;;;;5031337;28;20053;-63
2022/04/22 06:45:46;;;;;;;2.83;1.92;;;17.80;65.20;;;;;;5031896;28;20561;-63
2022/04/22 06:48:25;;;;;;;7.18;2.22;;;17.80;65.30;;;;;;5032130;28;20022;-63
2022/04/22 06:50:51;;;;;;;5.97;2.22;;;17.80;65.20;;;;;;5032249;28;20403;-63
2022/04/22 06:53:19;;;;;;;4.35;2.10;;;17.80;65.20;;;;;;5032342;28;20049;-63
2022/04/22 06:55:46;;;;;;;6.47;2.03;;;17.80;65.20;;;;;;5032192;28;20026;-63
2022/04/22 06:58:13;;;;;;;8.25;2.45;;;17.80;65.20;;;;;;5031976;28;20026;-63
2022/04/22 07:00:39;;;;;;;5.90;2.00;;;17.80;65.20;;;;;;5030908;28;20116;-63
2022/04/22 07:03:06;;;;;;;6.40;2.17;;;17.80;65.10;;;;;;5031862;28;20096;-63
2022/04/22 07:05:33;;;;;;;8.70;2.00;;;17.80;65.00;;;;;;5032129;28;20033;-63
2022/04/22 07:08:00;;;;;;;4.47;2.28;;;17.80;65.10;;;;;;5032088;28;20484;-63
2022/04/22 07:10:26;;;;;;;4.93;2.35;;;17.80;65.10;;;;;;5032006;28;20425;-63
2022/04/22 07:12:54;;;;;;;7.25;2.95;;;17.80;65.00;;;;;;5029941;28;20056;-63
2022/04/22 07:15:19;;;;;;;7.25;2.35;;;17.70;65.00;;;;;;5030631;28;20034;-63
2022/04/22 07:17:45;;;;;;;9.63;2.72;;;17.70;65.00;;;;;;5031773;28;20500;-63
2022/04/22 07:20:12;;;;;;;7.50;2.47;;;17.70;65.00;;;;;;5031805;28;20026;-63
2022/04/22 07:22:38;;;;;;;4.70;2.30;;;17.70;65.00;;;;;;5031910;28;20029;-63
2022/04/22 07:25:08;;;;;;;3.72;1.85;;;17.70;65.00;;;;;;5030606;28;20056;-63
2022/04/22 07:27:35;;;;;;;6.32;2.35;;;17.70;64.90;;;;;;5030698;28;20554;-63
2022/04/22 07:30:01;;;;;;;8.30;2.30;;;17.70;64.90;;;;;;5021131;28;20022;-63
2022/04/22 07:32:27;;;;;;;2.88;2.13;;;17.70;65.00;;;;;;5013132;28;20014;-63
2022/04/22 07:34:54;;;;;;;7.80;2.28;;;17.70;64.90;;;;;;5015652;28;20030;-63
2022/04/22 07:37:20;;;;;;;5.45;2.38;;;17.70;64.90;;;;;;5015942;28;20026;-63
2022/04/22 07:39:46;;;;;;;7.88;2.70;;;17.70;64.90;;;;;;5015501;28;20377;-63
2022/04/22 07:42:21;;;;;;;4.93;2.20;;;17.70;64.90;;;;;;5015681;28;20037;-63
2022/04/22 07:47:33;;;;;;;6.88;2.55;;;17.70;64.80;;;;;;5034526;28;20067;-63
2022/04/22 07:50:00;;;;;;;3.50;2.00;;;17.60;64.80;;;;;;5034136;28;20449;-63
2022/04/22 07:52:26;;;;;;;6.43;1.98;;;17.70;64.90;;;;;;5035326;28;20488;-63
2022/04/22 07:54:52;;;;;;;4.30;2.38;;;17.70;64.90;;;;;;5035380;28;20030;-63
2022/04/22 07:57:17;;;;;;;8.10;2.50;;;17.70;64.80;;;;;;5035004;28;20026;-63
2022/04/22 07:59:43;;;;;;;9.57;2.55;;;17.60;64.80;;;;;;5035056;28;20061;-63
2022/04/22 08:02:09;;;;;;;12.68;3.42;;;17.60;64.70;;;;;;5034975;28;20029;-63
2022/04/22 08:04:34;;;;;;;4.50;2.13;;;17.70;64.80;;;;;;5035129;28;20048;-63
2022/04/22 08:07:01;;;;;;;5.22;2.00;;;17.70;64.80;;;;;;5034875;28;20021;-63
2022/04/22 08:09:26;;;;;;;3.38;2.03;;;17.70;64.80;;;;;;5033926;28;20018;-63
2022/04/22 08:11:52;;;;;;;5.05;2.13;;;17.60;64.70;;;;;;5034510;28;20021;-63
2022/04/22 08:14:17;;;;;;;5.80;2.40;;;17.60;64.70;;;;;;5034763;28;20029;-63
2022/04/22 08:16:43;;;;;;;8.82;2.13;;;17.60;64.70;;;;;;5034816;28;20032;-63
2022/04/22 08:19:09;;;;;;;5.55;2.45;;;17.60;64.70;;;;;;5034516;28;20037;-63
2022/04/22 08:21:35;;;;;;;4.75;1.90;;;17.60;64.60;;;;;;5034715;28;20056;-63
2022/04/22 08:24:01;;;;;;;4.18;1.90;;;17.60;64.70;;;;;;5034620;28;20032;-63
2022/04/22 08:26:28;;;;;;;5.25;2.08;;;17.70;64.70;;;;;;5033212;28;20022;-63
2022/04/22 08:28:54;;;;;;;6.20;2.20;;;17.60;64.60;;;;;;5034585;28;20404;-63
2022/04/22 08:31:20;;;;;;;4.97;2.20;;;17.60;64.60;;;;;;5034426;28;20014;-63
2022/04/22 08:33:47;;;;;;;4.85;2.30;;;17.60;64.60;;;;;;5034944;28;20105;-63
2022/04/22 08:36:13;;;;;;;6.22;2.20;;;17.60;64.50;;;;;;5034378;28;20068;-63
2022/04/22 08:38:38;;;;;;;4.32;2.30;;;17.60;64.50;;;;;;5034525;28;20037;-63
2022/04/22 08:41:04;;;;;;;4.72;2.45;;;17.60;64.50;;;;;;5034064;28;20507;-63
2022/04/22 08:43:30;;;;;;;7.00;2.10;;;17.60;64.50;;;;;;5032808;28;20044;-63
2022/04/22 08:45:56;;;;;;;5.22;2.40;;;17.60;64.50;;;;;;5034579;28;20025;-63
2022/04/22 08:51:07;;;;;;;3.75;2.40;;;17.60;64.50;;;;;;5033428;28;20078;-63
2022/04/22 08:53:33;;;;;;;5.13;2.40;;;17.60;65.50;;;;;;5016767;28;20025;-63
2022/04/22 08:56:01;;;;;;;4.50;2.25;;;17.60;64.50;;;;;;5016389;28;20022;-63
2022/04/22 08:58:27;;;;;;;4.57;2.42;;;17.60;64.40;;;;;;5032943;28;20052;-63
2022/04/22 09:00:57;;;;;;;4.85;2.13;;;17.60;64.50;;;;;;5034112;28;20053;-63
2022/04/22 09:03:26;;;;;;;5.82;2.08;;;17.60;64.50;;;;;;5032873;28;20037;-63
2022/04/22 09:05:52;;;;;;;3.78;2.30;;;17.60;64.50;;;;;;5033957;28;20105;-63
2022/04/22 09:08:17;;;;;;;6.85;2.25;;;17.60;64.40;;;;;;5033704;28;20539;-63
2022/04/22 09:10:43;;;;;;;2.67;2.10;;;17.60;64.40;;;;;;5016290;28;20025;-63
2022/04/22 09:13:11;;;;;;;4.32;2.40;;;17.50;64.30;;;;;;5033548;28;20108;-63
2022/04/22 09:15:39;;;;;;;5.22;2.30;;;17.60;65.40;;;;;;5033882;28;20468;-63
2022/04/22 09:18:13;;;;;;;3.17;1.90;;;17.50;64.30;;;;;;5033622;28;20080;-63
2022/04/22 09:20:39;;;;;;;5.38;2.08;;;17.60;64.30;;;;;;5033717;28;20022;-63
2022/04/22 09:23:23;;;;;;;4.00;2.22;;;17.50;64.30;;;;;;5033310;28;20029;-63
2022/04/22 09:25:48;;;;;;;6.43;2.30;;;17.60;64.20;;;;;;5033419;28;20029;-63
2022/04/22 09:28:14;;;;;;;3.53;2.35;;;17.50;64.30;;;;;;5033360;28;20018;-63
2022/04/22 09:30:43;;;;;;;4.22;2.42;;;17.50;64.30;;;;;;5033514;28;20028;-63
2022/04/22 09:33:09;;;;;;;3.70;2.15;;;17.50;64.30;;;;;;5033190;28;20682;-63
2022/04/22 09:42:38;;;;;;;5.47;2.42;;;17.50;64.30;;;;;;5032288;28;20061;-63
2022/04/22 09:43:51;;;;;;;5.22;2.17;;;17.50;64.20;;;;;;5033052;28;20060;-63
2022/04/22 09:46:22;;;;;;;5.35;2.05;;;17.50;64.30;;;;;;5031844;28;20477;-63
2022/04/22 09:48:48;;;;;;;5.45;2.20;;;17.50;64.20;;;;;;5032214;28;20099;-63
2022/04/22 09:51:22;;;;;;;4.25;2.20;;;17.50;64.30;;;;;;5032963;28;20068;-63
2022/04/22 09:53:48;;;;;;;4.97;1.90;;;17.50;64.20;;;;;;5032720;28;20037;-63
2022/04/22 09:56:16;;;;;;;4.95;2.50;;;17.50;64.20;;;;;;5014662;28;20064;-63
2022/04/22 09:58:42;;;;;;;4.35;2.58;;;17.50;64.20;;;;;;5033160;28;20028;-63
2022/04/22 10:01:07;;;;;;;5.63;2.70;;;17.50;64.20;;;;;;5032765;28;20030;-63
2022/04/22 10:03:34;;;;;;;3.70;2.10;;;17.50;64.20;;;;;;5032563;28;20029;-63
2022/04/22 10:06:01;;;;;;;4.82;1.88;;;17.50;64.20;;;;;;5032901;28;20018;-63
2022/04/22 10:08:30;;;;;;;4.43;2.22;;;17.50;64.20;;;;;;5032487;28;20072;-63
2022/04/22 10:10:58;;;;;;;5.45;2.05;;;17.50;64.20;;;;;;5032784;28;20064;-63
2022/04/22 10:13:26;;;;;;;4.90;2.25;;;17.50;64.20;;;;;;5032336;28;20033;-63
2022/04/22 10:15:51;;;;;;;3.97;2.22;;;17.50;64.20;;;;;;5031545;28;20083;-63
2022/04/22 10:18:17;;;;;;;3.58;1.95;;;17.50;64.10;;;;;;5031657;28;20384;-63
2022/04/22 10:20:43;;;;;;;3.33;1.77;;;17.50;64.20;;;;;;5031439;28;20056;-63
2022/04/22 10:23:09;;;;;;;4.97;2.28;;;17.50;64.10;;;;;;5030994;28;20694;-63
2022/04/22 10:25:34;;;;;;;2.58;1.77;;;17.50;64.10;;;;;;5032467;28;20128;-63
2022/04/22 10:28:04;;;;;;;4.25;2.00;;;17.50;64.10;;;;;;5032979;28;20017;-63
2022/04/22 10:30:30;;;;;;;4.45;2.33;;;17.50;64.10;;;;;;5015161;28;20017;-63
2022/04/22 10:32:56;;;;;;;3.13;1.90;;;17.50;64.10;;;;;;5031377;28;20028;-63
2022/04/22 10:35:23;;;;;;;4.22;2.35;;;17.50;64.10;;;;;;5014964;28;20030;-63
2022/04/22 10:37:49;;;;;;;2.92;1.98;;;17.50;64.10;;;;;;5032061;28;20029;-63
2022/04/22 10:40:19;;;;;;;4.30;2.08;;;17.50;64.10;;;;;;5031069;28;20041;-63
2022/04/22 10:42:45;;;;;;;3.72;2.00;;;17.50;64.10;;;;;;5032440;28;20036;-63
2022/04/22 10:47:55;;;;;;;2.47;1.70;;;17.50;64.10;;;;;;5031584;28;20028;-63
2022/04/22 10:50:43;;;;;;;2.30;1.73;;;17.50;64.10;;;;;;5032032;28;20018;-63
2022/04/22 10:53:23;;;;;;;3.03;1.95;;;17.50;64.10;;;;;;5032114;28;20091;-63
2022/04/22 10:55:48;;;;;;;2.83;2.08;;;17.40;64.10;;;;;;5032302;28;20029;-63
2022/04/22 10:58:17;;;;;;;4.15;1.83;;;17.40;64.00;;;;;;5032159;28;20017;-63
2022/04/22 11:00:45;;;;;;;5.65;2.05;;;17.40;64.00;;;;;;5032305;28;20017;-63
2022/04/22 11:03:15;;;;;;;5.05;2.30;;;17.40;64.00;;;;;;5032013;28;20025;-63
2022/04/22 11:05:48;;;;;;;3.97;2.00;;;17.40;64.00;;;;;;5031811;28;20021;-63
2022/04/22 11:08:24;;;;;;;5.03;2.20;;;17.40;63.90;;;;;;5036100;28;20047;-63
2022/04/22 11:10:51;;;;;;;3.03;2.08;;;17.40;64.00;;;;;;5036064;28;20025;-63
2022/04/22 11:13:29;;;;;;;4.07;2.08;;;17.40;64.10;;;;;;5035798;28;20022;-63
2022/04/22 11:16:13;;;;;;;4.00;2.22;;;17.50;64.00;;;;;;5035877;28;20108;-63
2022/04/22 11:18:40;;;;;;;2.92;2.08;;;17.50;63.80;;;;;;5035974;28;20215;-63
2022/04/22 11:21:26;;;;;;;4.93;2.38;;;17.40;64.00;;;;;;5035648;28;20113;-63
2022/04/22 11:23:52;;;;;;;6.25;2.10;;;17.50;63.90;;;;;;5031794;28;20526;-63
2022/04/22 11:26:18;;;;;;;3.63;2.03;;;17.40;64.00;;;;;;5034571;28;20025;-63
2022/04/22 11:28:47;;;;;;;5.85;2.78;;;17.40;64.00;;;;;;5035897;28;20018;-63
2022/04/22 11:31:13;;;;;;;3.58;2.38;;;17.40;64.00;;;;;;5035628;28;20032;-63
2022/04/22 11:33:44;;;;;;;6.13;2.22;;;17.40;64.00;;;;;;5035585;28;20105;-63
2022/04/22 11:36:10;;;;;;;3.97;2.72;;;17.40;63.90;;;;;;5035300;28;20033;-63
2022/04/22 11:38:47;;;;;;;3.65;2.10;;;17.40;63.90;;;;;;5035431;28;20096;-63
2022/04/22 11:41:13;;;;;;;2.83;1.83;;;17.40;63.90;;;;;;5035379;28;20064;-63
2022/04/22 11:43:39;;;;;;;4.88;1.83;;;17.40;63.90;;;;;;5035379;28;20070;-63
2022/04/22 11:46:05;;;;;;;4.07;2.10;;;17.40;63.90;;;;;;5035483;28;20025;-63
2022/04/22 11:48:30;;;;;;;4.20;2.20;;;17.40;63.90;;;;;;5035179;28;20496;-63
2022/04/22 11:50:59;;;;;;;4.15;2.10;;;17.40;63.90;;;;;;5035096;28;20154;-63
2022/04/22 11:53:34;;;;;;;4.43;2.13;;;17.40;63.90;;;;;;5035336;28;20029;-63
2022/04/22 11:56:04;;;;;;;4.05;1.98;;;17.40;63.90;;;;;;5034273;28;20045;-63
2022/04/22 11:58:29;;;;;;;6.28;1.95;;;17.40;63.90;;;;;;5035066;28;20028;-63
2022/04/22 12:06:24;;;;;;;3.20;2.13;;;17.40;63.90;;;;;;5035004;28;20056;-63
2022/04/22 12:08:51;;;;;;;3.05;2.35;;;17.40;63.90;;;;;;5033982;28;20056;-63
2022/04/22 12:11:17;;;;;;;4.60;2.50;;;17.40;63.80;;;;;;5034843;28;20044;-63
2022/04/22 12:13:42;;;;;;;3.58;2.17;;;17.40;63.80;;;;;;5034817;28;20488;-63
2022/04/22 12:16:08;;;;;;;3.60;2.30;;;17.40;63.80;;;;;;5034993;28;20034;-63
2022/04/22 12:18:34;;;;;;;3.40;2.30;;;17.40;63.80;;;;;;5033897;28;20029;-63
2022/04/22 12:21:00;;;;;;;3.25;2.00;;;17.40;63.80;;;;;;5033559;28;20037;-63
2022/04/22 12:23:39;;;;;;;3.72;2.20;;;17.40;63.80;;;;;;5034668;28;20076;-63
2022/04/22 12:26:06;;;;;;;2.95;2.15;;;17.50;63.80;;;;;;5034841;28;20411;-63
2022/04/22 12:28:32;;;;;;;3.53;2.45;;;17.40;63.80;;;;;;5033148;28;20030;-62
2022/04/22 12:30:57;;;;;;;2.85;2.10;;;17.40;63.80;;;;;;5033895;28;20030;-63
2022/04/22 12:33:24;;;;;;;3.80;2.40;;;17.40;63.80;;;;;;5034739;28;20365;-63
2022/04/22 12:36:05;;;;;;;3.85;2.40;;;17.40;63.80;;;;;;5034495;28;20053;-63
2022/04/22 12:38:32;;;;;;;3.13;2.67;;;17.50;63.80;;;;;;5034075;28;20064;-63
2022/04/22 12:40:57;;;;;;;4.78;2.55;;;17.40;63.80;;;;;;5034530;28;20021;-63
2022/04/22 12:43:27;;;;;;;7.20;2.70;;;17.40;63.80;;;;;;5034288;28;20387;-63
2022/04/22 12:52:15;;;;;;;4.93;3.33;;;17.40;63.80;;;;;;5034983;28;20079;-63
2022/04/22 12:54:45;;;;;;;7.00;3.03;;;17.40;63.80;;;;;;5034758;28;20120;-62
2022/04/22 12:57:19;;;;;;;4.97;2.97;;;17.40;63.90;;;;;;5034783;28;20030;-63
2022/04/22 12:59:51;;;;;;;6.13;3.08;;;17.40;63.80;;;;;;5033375;28;20025;-63
2022/04/22 13:02:18;;;;;;;5.45;3.25;;;17.40;63.90;;;;;;5034548;28;20381;-63
2022/04/22 13:04:59;;;;;;;4.65;3.40;;;17.40;63.90;;;;;;5034557;28;20495;-62
2022/04/22 13:07:47;;;;;;;9.07;3.88;;;17.40;63.80;;;;;;5033080;28;20029;-63
2022/04/22 13:10:13;;;;;;;5.63;4.15;;;17.40;63.90;;;;;;5033690;28;20029;-63
2022/04/22 13:12:39;;;;;;;7.32;4.50;;;17.40;63.90;;;;;;5022861;28;20025;-63
2022/04/22 13:15:09;;;;;;;7.15;4.30;;;17.40;63.90;;;;;;5014460;28;20028;-63
2022/04/22 13:17:43;;;;;;;7.18;4.20;;;17.50;63.90;;;;;;5014202;28;20056;-63
2022/04/22 13:20:09;;;;;;;6.97;4.82;;;17.50;63.90;;;;;;5021071;28;20019;-63
2022/04/22 13:22:35;;;;;;;8.05;4.45;;;17.50;64.00;;;;;;5033921;28;20033;-63
2022/04/22 13:25:01;;;;;;;6.43;4.55;;;17.50;63.90;;;;;;5032885;28;20029;-63
2022/04/22 13:27:27;;;;;;;7.45;4.80;;;17.50;63.90;;;;;;5032774;28;20047;-63
2022/04/22 13:29:52;;;;;;;7.03;4.63;;;17.50;63.90;;;;;;5032962;28;20049;-63
2022/04/22 13:32:18;;;;;;;7.72;4.43;;;17.50;63.90;;;;;;5033573;28;20071;-63
2022/04/22 13:34:43;;;;;;;8.05;4.40;;;17.50;63.90;;;;;;5033906;28;20047;-63
2022/04/22 13:37:09;;;;;;;9.68;4.70;;;17.50;64.00;;;;;;5033821;28;20084;-63
2022/04/22 13:39:35;;;;;;;7.47;4.65;;;17.50;63.90;;;;;;5033551;28;20679;-63
2022/04/22 13:42:01;;;;;;;6.53;4.45;;;17.50;63.90;;;;;;5033950;28;20534;-63
2022/04/22 13:52:38;;;;;;;9.15;5.05;;;17.50;64.00;;;;;;5033660;28;20075;-63
2022/04/22 13:55:05;;;;;;;7.78;4.72;;;17.50;64.00;;;;;;5033573;28;20025;-63
2022/04/22 13:57:30;;;;;;;6.68;4.53;;;17.50;64.00;;;;;;5032414;28;20029;-63
2022/04/22 13:59:56;;;;;;;5.28;4.35;;;17.50;64.00;;;;;;5015767;28;20140;-63
2022/04/22 14:02:22;;;;;;;6.63;4.90;;;17.50;64.00;;;;;;5033644;28;20391;-63